Terminal Aerodrome Forecast
Issued by NWS

Home | Current Version | Previous Version | Text Only | Print | Product List | Glossary On
Versions: 1 2 3 4 5 6 7 8 9 10 11 12 13 14 15 16 17 18 19 20 21 22 23 24 25 26 27 28 29 30 31 32 33
000
FTUS43 KLOT 282300
TAFDPA
TAF
KDPA 282340Z 2900/2924 15013G21KT P6SM BKN200
     FM290400 17015G23KT P6SM VCSH SCT030 BKN100
     FM290900 23013KT 6SM -RADZ SCT009 OVC012
     FM291200 28010KT 3SM -RADZ BR OVC007
     FM291400 32016G27KT P6SM -RASN OVC015
     FM291800 33018G30KT P6SM OVC020=

USA.gov is the U.S. government's official web portal to all federal, state and local government web resources and services.